Main page
METAR-TAF:

METAR-TAF

Airports :

Bamako–Modibo Keïta International Airport

Bamako, Mali

latitude: 12-32N, longitude: 007-57W, elevation: 380 m

Current weather observation

The report was made 35 minutes ago, at 18:30 UTC
Wind 8 kt from the North/Northeast
Temperature 40°C
Humidity 8%
Pressure 1010 hPa
Visibility 10 km or more
no clouds below 1500 m and no cumulonimbus

METAR: GABS 041830Z 03008KT CAVOK 40/M01 Q1010 NOSIG

Time: 19:05 (19:05 UTC)

Forecast

The report was made 2 hours and 5 minutes ago, at 17:00 UTC
Forecast valid from 04 at 18 UTC to 05 at 24 UTC
Wind 8 kt from the East/Northeast
Visibility 10 km or more
no clouds below 1500 m and no cumulonimbus

TAF: GABS 041700Z 0418/0524 06008KT CAVOK

Weather observations and forecasts of more than 4000 airports (METAR and TAF reports).

The available stations are represented by yellow and red dots on the map.

Hover mouse over dot to see the name of the station.

Then click to see weather observations and forecasts.

To change the map : click on the green buttons with a black cross to zoom in, on the green button with a dash to zoom out, or on the green arrows for adjacent maps.


METAR-TAF: